AAL714 KLAX-KPHX
Flight info
| Callsign | AAL714 |
|---|---|
| Flight time | 0h 59m |
| Altitude | 37000 |
| Route | DOTSS2 CNERY BLH HYDRR1 |
| Aircraft | A320/M-SDE3FGHIRWY/LB1 |
Departure
| Time | 2026-04-25 17:34 |
|---|---|
| Airport | Los Angeles International Airport (KLAX) |
Arrival
| Time | 2026-04-25 18:33 |
|---|---|
| Airport | Phoenix Sky Harbor International Airport (KPHX) |
| Time | Latitude | Longitude | Altitude | Speed | Heading |
|---|---|---|---|---|---|
| 2026-04-25 17:10 | 33.94100 | -118.39890 | 121 ft | 0 kts | 306° |
| 2026-04-25 17:26 | 33.94097 | -118.39885 | 120 ft | 4 kts | 303° |
| 2026-04-25 17:26 | 33.94086 | -118.39857 | 121 ft | 4 kts | 271° |
| 2026-04-25 17:26 | 33.94092 | -118.39832 | 122 ft | 4 kts | 207° |
| 2026-04-25 17:27 | 33.94105 | -118.39827 | 122 ft | 0 kts | 172° |
| 2026-04-25 17:29 | 33.94101 | -118.39827 | 121 ft | 3 kts | 172° |
| 2026-04-25 17:29 | 33.94057 | -118.39824 | 124 ft | 10 kts | 181° |
| 2026-04-25 17:29 | 33.93979 | -118.39816 | 124 ft | 12 kts | 169° |
| 2026-04-25 17:29 | 33.93912 | -118.39751 | 123 ft | 14 kts | 107° |
| 2026-04-25 17:30 | 33.93915 | -118.39642 | 126 ft | 12 kts | 83° |
| 2026-04-25 17:30 | 33.93925 | -118.39543 | 126 ft | 11 kts | 83° |
| 2026-04-25 17:30 | 33.93937 | -118.39429 | 123 ft | 16 kts | 83° |
| 2026-04-25 17:30 | 33.93951 | -118.39292 | 126 ft | 16 kts | 82° |
| 2026-04-25 17:31 | 33.93964 | -118.39165 | 126 ft | 15 kts | 84° |
| 2026-04-25 17:31 | 33.93975 | -118.39050 | 126 ft | 13 kts | 82° |
| 2026-04-25 17:31 | 33.93989 | -118.38932 | 126 ft | 16 kts | 83° |
| 2026-04-25 17:31 | 33.94002 | -118.38787 | 124 ft | 19 kts | 83° |
| 2026-04-25 17:32 | 33.94019 | -118.38630 | 126 ft | 19 kts | 83° |
| 2026-04-25 17:32 | 33.94034 | -118.38476 | 125 ft | 18 kts | 83° |
| 2026-04-25 17:32 | 33.94049 | -118.38335 | 124 ft | 16 kts | 83° |
| 2026-04-25 17:32 | 33.94062 | -118.38203 | 126 ft | 15 kts | 83° |
| 2026-04-25 17:33 | 33.94074 | -118.38085 | 126 ft | 14 kts | 83° |
| 2026-04-25 17:33 | 33.94038 | -118.38003 | 122 ft | 12 kts | 163° |
| 2026-04-25 17:33 | 33.93981 | -118.38058 | 122 ft | 13 kts | 261° |
| 2026-04-25 17:33 | 33.93970 | -118.38164 | 126 ft | 18 kts | 263° |
| 2026-04-25 17:34 | 33.93920 | -118.38624 | 126 ft | 93 kts | 263° |
| 2026-04-25 17:34 | 33.93813 | -118.39661 | 128 ft | 153 kts | 262° |
| 2026-04-25 17:34 | 33.93677 | -118.41001 | 659 ft | 163 kts | 262° |
| 2026-04-25 17:34 | 33.93544 | -118.42378 | 1397 ft | 168 kts | 262° |
| 2026-04-25 17:35 | 33.93409 | -118.43787 | 2109 ft | 174 kts | 261° |
| 2026-04-25 17:35 | 33.93232 | -118.45311 | 2563 ft | 192 kts | 254° |
| 2026-04-25 17:35 | 33.92596 | -118.46830 | 2876 ft | 218 kts | 228° |
| 2026-04-25 17:35 | 33.91561 | -118.48288 | 3402 ft | 240 kts | 228° |
| 2026-04-25 17:36 | 33.90448 | -118.49901 | 4045 ft | 257 kts | 229° |
| 2026-04-25 17:36 | 33.89298 | -118.51572 | 5066 ft | 260 kts | 230° |
| 2026-04-25 17:36 | 33.88131 | -118.53243 | 6092 ft | 262 kts | 230° |
| 2026-04-25 17:36 | 33.86754 | -118.54700 | 7056 ft | 267 kts | 213° |
| 2026-04-25 17:37 | 33.85023 | -118.55550 | 8042 ft | 273 kts | 194° |
| 2026-04-25 17:37 | 33.83113 | -118.55672 | 9050 ft | 279 kts | 176° |
| 2026-04-25 17:37 | 33.81201 | -118.55153 | 10024 ft | 284 kts | 170° |
| 2026-04-25 17:37 | 33.79237 | -118.54566 | 10550 ft | 301 kts | 172° |
| 2026-04-25 17:38 | 33.77121 | -118.54000 | 11029 ft | 319 kts | 173° |
| 2026-04-25 17:38 | 33.75645 | -118.53622 | 11599 ft | 323 kts | 173° |
| 2026-04-25 17:38 | 33.72753 | -118.52671 | 12849 ft | 333 kts | 162° |
| 2026-04-25 17:38 | 33.70739 | -118.51211 | 13703 ft | 347 kts | 147° |
| 2026-04-25 17:39 | 33.69086 | -118.49026 | 14427 ft | 363 kts | 129° |
| 2026-04-25 17:39 | 33.67972 | -118.46248 | 15121 ft | 376 kts | 114° |
| 2026-04-25 17:39 | 33.67107 | -118.43265 | 15907 ft | 380 kts | 114° |
| 2026-04-25 17:39 | 33.66223 | -118.40256 | 16667 ft | 385 kts | 115° |
| 2026-04-25 17:40 | 33.65320 | -118.37206 | 17336 ft | 390 kts | 114° |
| 2026-04-25 17:40 | 33.64632 | -118.34028 | 17983 ft | 400 kts | 102° |
| 2026-04-25 17:40 | 33.64443 | -118.30669 | 18590 ft | 408 kts | 92° |
| 2026-04-25 17:40 | 33.64450 | -118.27243 | 19173 ft | 412 kts | 92° |
| 2026-04-25 17:41 | 33.64456 | -118.23798 | 19759 ft | 415 kts | 93° |
| 2026-04-25 17:41 | 33.64458 | -118.20310 | 20346 ft | 419 kts | 93° |
| 2026-04-25 17:41 | 33.64458 | -118.16805 | 20933 ft | 422 kts | 93° |
| 2026-04-25 17:41 | 33.64457 | -118.13260 | 21557 ft | 427 kts | 93° |
| 2026-04-25 17:42 | 33.64456 | -118.09692 | 22173 ft | 430 kts | 93° |
| 2026-04-25 17:42 | 33.64456 | -118.06080 | 22750 ft | 434 kts | 93° |
| 2026-04-25 17:42 | 33.64457 | -118.02446 | 23337 ft | 438 kts | 93° |
| 2026-04-25 17:42 | 33.64454 | -117.98775 | 23854 ft | 441 kts | 93° |
| 2026-04-25 17:43 | 33.64450 | -117.95080 | 24321 ft | 445 kts | 93° |
| 2026-04-25 17:43 | 33.64442 | -117.91356 | 24765 ft | 448 kts | 93° |
| 2026-04-25 17:43 | 33.64429 | -117.87603 | 25205 ft | 452 kts | 93° |
| 2026-04-25 17:43 | 33.64416 | -117.83816 | 25647 ft | 455 kts | 93° |
| 2026-04-25 17:44 | 33.64261 | -117.80022 | 26061 ft | 456 kts | 101° |
| 2026-04-25 17:44 | 33.63625 | -117.76308 | 26474 ft | 454 kts | 110° |
| 2026-04-25 17:44 | 33.62725 | -117.72669 | 26876 ft | 457 kts | 111° |
| 2026-04-25 17:44 | 33.61815 | -117.68995 | 27276 ft | 460 kts | 111° |
| 2026-04-25 17:45 | 33.60902 | -117.65301 | 27676 ft | 464 kts | 111° |
| 2026-04-25 17:45 | 33.60604 | -117.64093 | 27805 ft | 465 kts | 111° |
| 2026-04-25 17:45 | 33.59057 | -117.57828 | 28454 ft | 471 kts | 111° |
| 2026-04-25 17:45 | 33.58124 | -117.54052 | 28839 ft | 474 kts | 111° |
| 2026-04-25 17:46 | 33.57183 | -117.50253 | 29216 ft | 477 kts | 111° |
| 2026-04-25 17:46 | 33.56236 | -117.46429 | 29562 ft | 480 kts | 110° |
| 2026-04-25 17:46 | 33.55281 | -117.42580 | 29935 ft | 482 kts | 110° |
| 2026-04-25 17:46 | 33.54337 | -117.38767 | 30227 ft | 485 kts | 111° |
| 2026-04-25 17:47 | 33.53370 | -117.34873 | 30491 ft | 489 kts | 111° |
| 2026-04-25 17:47 | 33.52392 | -117.30961 | 30775 ft | 492 kts | 111° |
| 2026-04-25 17:47 | 33.51405 | -117.27021 | 31057 ft | 494 kts | 111° |
| 2026-04-25 17:47 | 33.50645 | -117.22920 | 31344 ft | 502 kts | 102° |
| 2026-04-25 17:48 | 33.50358 | -117.14532 | 31958 ft | 508 kts | 94° |
| 2026-04-25 17:48 | 33.50309 | -117.10301 | 32361 ft | 508 kts | 95° |
| 2026-04-25 17:48 | 33.50257 | -117.06077 | 32737 ft | 507 kts | 95° |
| 2026-04-25 17:49 | 33.50201 | -117.01846 | 33118 ft | 508 kts | 95° |
| 2026-04-25 17:49 | 33.50143 | -116.97623 | 33479 ft | 508 kts | 95° |
| 2026-04-25 17:49 | 33.50085 | -116.93391 | 33847 ft | 508 kts | 96° |
| 2026-04-25 17:49 | 33.50024 | -116.89166 | 34193 ft | 508 kts | 96° |
| 2026-04-25 17:50 | 33.49957 | -116.84930 | 34431 ft | 509 kts | 96° |
| 2026-04-25 17:50 | 33.49885 | -116.80684 | 34667 ft | 511 kts | 96° |
| 2026-04-25 17:50 | 33.49812 | -116.76418 | 34924 ft | 512 kts | 96° |
| 2026-04-25 17:50 | 33.49739 | -116.72151 | 35169 ft | 513 kts | 96° |
| 2026-04-25 17:51 | 33.49667 | -116.67875 | 35410 ft | 514 kts | 96° |
| 2026-04-25 17:51 | 33.49595 | -116.63590 | 35651 ft | 515 kts | 96° |
| 2026-04-25 17:51 | 33.49523 | -116.59299 | 35889 ft | 516 kts | 96° |
| 2026-04-25 17:51 | 33.49448 | -116.54998 | 36121 ft | 517 kts | 97° |
| 2026-04-25 17:52 | 33.49370 | -116.50676 | 36267 ft | 521 kts | 97° |
| 2026-04-25 17:52 | 33.49208 | -116.41972 | 36680 ft | 524 kts | 97° |
| 2026-04-25 17:52 | 33.49133 | -116.37608 | 36862 ft | 525 kts | 97° |
| 2026-04-25 17:53 | 33.49069 | -116.33248 | 36893 ft | 522 kts | 96° |
| 2026-04-25 17:53 | 33.48955 | -116.24579 | 36874 ft | 520 kts | 96° |
| 2026-04-25 17:54 | 33.48825 | -116.15886 | 36882 ft | 522 kts | 97° |
| 2026-04-25 17:54 | 33.48716 | -116.07182 | 36879 ft | 525 kts | 92° |
| 2026-04-25 17:55 | 33.50026 | -115.98533 | 36883 ft | 533 kts | 72° |
| 2026-04-25 17:55 | 33.52496 | -115.90156 | 36881 ft | 533 kts | 71° |
| 2026-04-25 17:56 | 33.54952 | -115.81769 | 36901 ft | 533 kts | 72° |
| 2026-04-25 17:56 | 33.57374 | -115.73436 | 36896 ft | 533 kts | 72° |
| 2026-04-25 17:57 | 33.59807 | -115.65049 | 36895 ft | 533 kts | 72° |
| 2026-04-25 17:57 | 33.62144 | -115.56622 | 36885 ft | 530 kts | 81° |
| 2026-04-25 17:58 | 33.62339 | -115.47957 | 36885 ft | 518 kts | 98° |
| 2026-04-25 17:58 | 33.62028 | -115.39316 | 36884 ft | 518 kts | 98° |
| 2026-04-25 17:59 | 33.61682 | -115.30690 | 36875 ft | 518 kts | 98° |
| 2026-04-25 17:59 | 33.61375 | -115.22196 | 36863 ft | 503 kts | 98° |
| 2026-04-25 18:00 | 33.61070 | -115.13728 | 36858 ft | 514 kts | 98° |
| 2026-04-25 18:00 | 33.60742 | -115.05122 | 36863 ft | 518 kts | 98° |
| 2026-04-25 18:01 | 33.60405 | -114.96482 | 36841 ft | 521 kts | 98° |
| 2026-04-25 18:01 | 33.60017 | -114.87726 | 36525 ft | 527 kts | 98° |
| 2026-04-25 18:01 | 33.59834 | -114.83336 | 36116 ft | 525 kts | 98° |
| 2026-04-25 18:02 | 33.59672 | -114.78973 | 35372 ft | 526 kts | 97° |
| 2026-04-25 18:02 | 33.59272 | -114.74611 | 34431 ft | 524 kts | 109° |
| 2026-04-25 18:02 | 33.58501 | -114.70344 | 33727 ft | 523 kts | 109° |
| 2026-04-25 18:02 | 33.57709 | -114.66119 | 33103 ft | 518 kts | 109° |
| 2026-04-25 18:03 | 33.56901 | -114.61934 | 32569 ft | 511 kts | 109° |
| 2026-04-25 18:03 | 33.56095 | -114.57822 | 32060 ft | 504 kts | 109° |
| 2026-04-25 18:03 | 33.55292 | -114.53760 | 31567 ft | 497 kts | 109° |
| 2026-04-25 18:03 | 33.54497 | -114.49756 | 31090 ft | 491 kts | 109° |
| 2026-04-25 18:04 | 33.53715 | -114.45805 | 30624 ft | 484 kts | 109° |
| 2026-04-25 18:04 | 33.52944 | -114.41898 | 30181 ft | 478 kts | 109° |
| 2026-04-25 18:04 | 33.52189 | -114.38046 | 29705 ft | 472 kts | 108° |
| 2026-04-25 18:04 | 33.51442 | -114.34235 | 29152 ft | 467 kts | 108° |
| 2026-04-25 18:05 | 33.50703 | -114.30467 | 28614 ft | 463 kts | 108° |
| 2026-04-25 18:05 | 33.49966 | -114.26733 | 28053 ft | 459 kts | 108° |
| 2026-04-25 18:05 | 33.49229 | -114.23026 | 27509 ft | 455 kts | 108° |
| 2026-04-25 18:05 | 33.48499 | -114.19357 | 26986 ft | 452 kts | 108° |
| 2026-04-25 18:06 | 33.47775 | -114.15706 | 26473 ft | 448 kts | 108° |
| 2026-04-25 18:06 | 33.47056 | -114.12092 | 25974 ft | 445 kts | 108° |
| 2026-04-25 18:06 | 33.46340 | -114.08503 | 25503 ft | 442 kts | 108° |
| 2026-04-25 18:06 | 33.45631 | -114.04949 | 25225 ft | 433 kts | 108° |
| 2026-04-25 18:07 | 33.44943 | -114.01495 | 25022 ft | 423 kts | 108° |
| 2026-04-25 18:07 | 33.44261 | -113.98095 | 24648 ft | 418 kts | 108° |
| 2026-04-25 18:07 | 33.43581 | -113.94725 | 24242 ft | 415 kts | 109° |
| 2026-04-25 18:07 | 33.42906 | -113.91381 | 23842 ft | 412 kts | 108° |
| 2026-04-25 18:08 | 33.42239 | -113.88061 | 23418 ft | 409 kts | 108° |
| 2026-04-25 18:08 | 33.41574 | -113.84752 | 22940 ft | 406 kts | 109° |
| 2026-04-25 18:08 | 33.40914 | -113.81482 | 22503 ft | 403 kts | 108° |
| 2026-04-25 18:08 | 33.40258 | -113.78230 | 22087 ft | 400 kts | 109° |
| 2026-04-25 18:09 | 33.39609 | -113.75013 | 21667 ft | 397 kts | 109° |
| 2026-04-25 18:09 | 33.38964 | -113.71812 | 21225 ft | 394 kts | 108° |
| 2026-04-25 18:09 | 33.38540 | -113.69706 | 20932 ft | 393 kts | 109° |
| 2026-04-25 18:09 | 33.38117 | -113.67607 | 20659 ft | 391 kts | 109° |
| 2026-04-25 18:10 | 33.37265 | -113.63394 | 20119 ft | 388 kts | 109° |
| 2026-04-25 18:10 | 33.36630 | -113.60270 | 19735 ft | 385 kts | 109° |
| 2026-04-25 18:10 | 33.35998 | -113.57178 | 19362 ft | 382 kts | 109° |
| 2026-04-25 18:10 | 33.35364 | -113.54089 | 18984 ft | 380 kts | 109° |
| 2026-04-25 18:11 | 33.34735 | -113.51033 | 18625 ft | 378 kts | 109° |
| 2026-04-25 18:11 | 33.34112 | -113.47987 | 18257 ft | 376 kts | 108° |
| 2026-04-25 18:11 | 33.33500 | -113.44959 | 17858 ft | 373 kts | 108° |
| 2026-04-25 18:11 | 33.32941 | -113.41938 | 17445 ft | 371 kts | 106° |
| 2026-04-25 18:12 | 33.32427 | -113.38929 | 17079 ft | 368 kts | 105° |
| 2026-04-25 18:12 | 33.31934 | -113.35939 | 16709 ft | 365 kts | 105° |
| 2026-04-25 18:12 | 33.31448 | -113.32974 | 16349 ft | 362 kts | 105° |
| 2026-04-25 18:12 | 33.30957 | -113.30030 | 15995 ft | 359 kts | 106° |
| 2026-04-25 18:13 | 33.30461 | -113.27117 | 15635 ft | 357 kts | 106° |
| 2026-04-25 18:13 | 33.29958 | -113.24222 | 15293 ft | 354 kts | 107° |
| 2026-04-25 18:13 | 33.29468 | -113.21348 | 14943 ft | 352 kts | 105° |
| 2026-04-25 18:14 | 33.28624 | -113.15617 | 14272 ft | 348 kts | 104° |
| 2026-04-25 18:14 | 33.28234 | -113.12775 | 13940 ft | 346 kts | 104° |
| 2026-04-25 18:14 | 33.27845 | -113.09949 | 13608 ft | 343 kts | 104° |
| 2026-04-25 18:14 | 33.27482 | -113.07138 | 13225 ft | 343 kts | 98° |
| 2026-04-25 18:15 | 33.27498 | -113.04292 | 12881 ft | 342 kts | 91° |
| 2026-04-25 18:15 | 33.27574 | -113.01465 | 12537 ft | 339 kts | 91° |
| 2026-04-25 18:15 | 33.27645 | -112.98653 | 12198 ft | 337 kts | 91° |
| 2026-04-25 18:15 | 33.27715 | -112.95871 | 11864 ft | 334 kts | 91° |
| 2026-04-25 18:16 | 33.27784 | -112.93105 | 11508 ft | 332 kts | 91° |
| 2026-04-25 18:16 | 33.27853 | -112.90361 | 11187 ft | 329 kts | 91° |
| 2026-04-25 18:16 | 33.27985 | -112.84943 | 10523 ft | 323 kts | 91° |
| 2026-04-25 18:17 | 33.28054 | -112.82270 | 10182 ft | 321 kts | 90° |
| 2026-04-25 18:17 | 33.28204 | -112.79618 | 9811 ft | 317 kts | 87° |
| 2026-04-25 18:17 | 33.28432 | -112.77012 | 9126 ft | 313 kts | 85° |
| 2026-04-25 18:17 | 33.28695 | -112.74447 | 8479 ft | 309 kts | 84° |
| 2026-04-25 18:18 | 33.28962 | -112.71932 | 8068 ft | 307 kts | 85° |
| 2026-04-25 18:18 | 33.29228 | -112.69375 | 7749 ft | 302 kts | 84° |
| 2026-04-25 18:18 | 33.29473 | -112.66941 | 7752 ft | 299 kts | 85° |
| 2026-04-25 18:18 | 33.29714 | -112.64468 | 7752 ft | 299 kts | 85° |
| 2026-04-25 18:19 | 33.29949 | -112.61994 | 7752 ft | 300 kts | 85° |
| 2026-04-25 18:19 | 33.30180 | -112.59517 | 7750 ft | 300 kts | 85° |
| 2026-04-25 18:19 | 33.30410 | -112.57041 | 7746 ft | 300 kts | 85° |
| 2026-04-25 18:19 | 33.30640 | -112.54520 | 8190 ft | 310 kts | 85° |
| 2026-04-25 18:20 | 33.30872 | -112.51973 | 9255 ft | 310 kts | 85° |
| 2026-04-25 18:20 | 33.31108 | -112.49395 | 9746 ft | 313 kts | 86° |
| 2026-04-25 18:20 | 33.31346 | -112.46811 | 9938 ft | 313 kts | 86° |
| 2026-04-25 18:20 | 33.31589 | -112.44161 | 9998 ft | 332 kts | 86° |
| 2026-04-25 18:21 | 33.31837 | -112.41476 | 10008 ft | 318 kts | 86° |
| 2026-04-25 18:21 | 33.32081 | -112.38867 | 10012 ft | 314 kts | 86° |
| 2026-04-25 18:21 | 33.32321 | -112.36275 | 10015 ft | 313 kts | 86° |
| 2026-04-25 18:21 | 33.32558 | -112.33690 | 10015 ft | 313 kts | 86° |
| 2026-04-25 18:22 | 33.32794 | -112.31113 | 10013 ft | 312 kts | 86° |
| 2026-04-25 18:22 | 33.32951 | -112.29397 | 10009 ft | 313 kts | 86° |
| 2026-04-25 18:22 | 33.33266 | -112.25936 | 10004 ft | 313 kts | 86° |
| 2026-04-25 18:22 | 33.33500 | -112.23347 | 10001 ft | 313 kts | 86° |
| 2026-04-25 18:23 | 33.33732 | -112.20756 | 9995 ft | 313 kts | 86° |
| 2026-04-25 18:23 | 33.33960 | -112.18174 | 9858 ft | 311 kts | 86° |
| 2026-04-25 18:23 | 33.34187 | -112.15623 | 9448 ft | 310 kts | 86° |
| 2026-04-25 18:23 | 33.34415 | -112.13074 | 9198 ft | 304 kts | 86° |
| 2026-04-25 18:24 | 33.34636 | -112.10645 | 9059 ft | 283 kts | 86° |
| 2026-04-25 18:24 | 33.34756 | -112.08356 | 8928 ft | 271 kts | 94° |
| 2026-04-25 18:24 | 33.34728 | -112.06132 | 8739 ft | 263 kts | 94° |
| 2026-04-25 18:24 | 33.34701 | -112.03966 | 8476 ft | 260 kts | 94° |
| 2026-04-25 18:25 | 33.34674 | -112.01848 | 8208 ft | 257 kts | 94° |
| 2026-04-25 18:25 | 33.34646 | -111.99697 | 7922 ft | 254 kts | 94° |
| 2026-04-25 18:25 | 33.34617 | -111.97590 | 7643 ft | 252 kts | 94° |
| 2026-04-25 18:25 | 33.34590 | -111.95530 | 7361 ft | 250 kts | 94° |
| 2026-04-25 18:26 | 33.34563 | -111.93430 | 7040 ft | 249 kts | 93° |
| 2026-04-25 18:26 | 33.34574 | -111.91363 | 6787 ft | 247 kts | 91° |
| 2026-04-25 18:26 | 33.34620 | -111.89314 | 6502 ft | 246 kts | 90° |
| 2026-04-25 18:26 | 33.34674 | -111.87301 | 6210 ft | 245 kts | 90° |
| 2026-04-25 18:27 | 33.34728 | -111.85273 | 5907 ft | 243 kts | 90° |
| 2026-04-25 18:27 | 33.34777 | -111.83259 | 5629 ft | 241 kts | 90° |
| 2026-04-25 18:27 | 33.34824 | -111.81256 | 5341 ft | 240 kts | 90° |
| 2026-04-25 18:27 | 33.35014 | -111.79290 | 5122 ft | 237 kts | 71° |
| 2026-04-25 18:28 | 33.35938 | -111.77717 | 4988 ft | 230 kts | 37° |
| 2026-04-25 18:28 | 33.37362 | -111.76980 | 4827 ft | 222 kts | 9° |
| 2026-04-25 18:28 | 33.38860 | -111.76919 | 4676 ft | 211 kts | 350° |
| 2026-04-25 18:29 | 33.41400 | -111.78352 | 4518 ft | 201 kts | 313° |
| 2026-04-25 18:29 | 33.42255 | -111.79636 | 4366 ft | 194 kts | 296° |
| 2026-04-25 18:30 | 33.42860 | -111.84070 | 3726 ft | 167 kts | 267° |
| 2026-04-25 18:30 | 33.42860 | -111.85460 | 3524 ft | 167 kts | 267° |
| 2026-04-25 18:30 | 33.42839 | -111.86840 | 3308 ft | 165 kts | 267° |
| 2026-04-25 18:30 | 33.42826 | -111.88215 | 3124 ft | 165 kts | 268° |
| 2026-04-25 18:31 | 33.42832 | -111.89551 | 2901 ft | 154 kts | 269° |
| 2026-04-25 18:31 | 33.42862 | -111.90789 | 2650 ft | 144 kts | 270° |
| 2026-04-25 18:31 | 33.42872 | -111.91963 | 2431 ft | 137 kts | 268° |
| 2026-04-25 18:31 | 33.42873 | -111.93086 | 2210 ft | 134 kts | 269° |
| 2026-04-25 18:32 | 33.42869 | -111.94241 | 2021 ft | 138 kts | 268° |
| 2026-04-25 18:32 | 33.42878 | -111.95387 | 1948 ft | 140 kts | 265° |
| 2026-04-25 18:32 | 33.42878 | -111.96530 | 1833 ft | 137 kts | 265° |
| 2026-04-25 18:32 | 33.42882 | -111.97667 | 1639 ft | 137 kts | 264° |
| 2026-04-25 18:33 | 33.42878 | -111.98809 | 1465 ft | 139 kts | 266° |
| 2026-04-25 18:33 | 33.42887 | -111.99984 | 1267 ft | 139 kts | 266° |
| 2026-04-25 18:33 | 33.42882 | -112.01076 | 1184 ft | 121 kts | 268° |
| 2026-04-25 18:33 | 33.42884 | -112.01797 | 1182 ft | 44 kts | 271° |
| 2026-04-25 18:34 | 33.42900 | -112.02097 | 1171 ft | 30 kts | 291° |
| 2026-04-25 18:34 | 33.42975 | -112.02156 | 1174 ft | 9 kts | 28° |
| 2026-04-25 18:34 | 33.42996 | -112.02099 | 1176 ft | 7 kts | 85° |
| 2026-04-25 18:34 | 33.42996 | -112.02005 | 1184 ft | 17 kts | 90° |
| 2026-04-25 18:35 | 33.42997 | -112.01827 | 1182 ft | 24 kts | 91° |
| 2026-04-25 18:35 | 33.42995 | -112.01617 | 1183 ft | 26 kts | 90° |
| 2026-04-25 18:35 | 33.42996 | -112.01398 | 1184 ft | 27 kts | 90° |
| 2026-04-25 18:35 | 33.42995 | -112.01186 | 1181 ft | 25 kts | 90° |
| 2026-04-25 18:36 | 33.42996 | -112.00993 | 1185 ft | 18 kts | 88° |
| 2026-04-25 18:36 | 33.43011 | -112.00911 | 1185 ft | 9 kts | 47° |
| 2026-04-25 18:36 | 33.43094 | -112.00897 | 1184 ft | 15 kts | 357° |
| 2026-04-25 18:36 | 33.43185 | -112.00874 | 1184 ft | 13 kts | 49° |
| 2026-04-25 18:37 | 33.43215 | -112.00779 | 1186 ft | 12 kts | 85° |
| 2026-04-25 18:37 | 33.43214 | -112.00676 | 1189 ft | 13 kts | 91° |
| 2026-04-25 18:37 | 33.43216 | -112.00553 | 1187 ft | 16 kts | 89° |
| 2026-04-25 18:37 | 33.43281 | -112.00470 | 1186 ft | 16 kts | 1° |
| 2026-04-25 18:38 | 33.43386 | -112.00471 | 1186 ft | 15 kts | 359° |
| 2026-04-25 18:38 | 33.43484 | -112.00471 | 1185 ft | 13 kts | 360° |
| 2026-04-25 18:38 | 33.43579 | -112.00471 | 1187 ft | 16 kts | 0° |
| 2026-04-25 18:38 | 33.43693 | -112.00471 | 1185 ft | 13 kts | 0° |
| 2026-04-25 18:39 | 33.43764 | -112.00470 | 1186 ft | 9 kts | 360° |
| 2026-04-25 18:39 | 33.43823 | -112.00471 | 1187 ft | 9 kts | 360° |
| 2026-04-25 18:39 | 33.43898 | -112.00448 | 1186 ft | 12 kts | 50° |
| 2026-04-25 18:39 | 33.43905 | -112.00361 | 1184 ft | 10 kts | 91° |
| 2026-04-25 18:40 | 33.43905 | -112.00282 | 1184 ft | 9 kts | 90° |
| 2026-04-25 18:40 | 33.43904 | -112.00213 | 1184 ft | 8 kts | 90° |
| 2026-04-25 18:40 | 33.43904 | -112.00152 | 1184 ft | 7 kts | 90° |
| 2026-04-25 18:40 | 33.43892 | -112.00078 | 1188 ft | 9 kts | 130° |
| 2026-04-25 18:41 | 33.43822 | -112.00072 | 1184 ft | 12 kts | 181° |
| 2026-04-25 18:41 | 33.43763 | -112.00084 | 1181 ft | 5 kts | 216° |
| 2026-04-25 18:41 | 33.43755 | -112.00113 | 1181 ft | 3 kts | 264° |
| 2026-04-25 18:41 | 33.43755 | -112.00131 | 1183 ft | 0 kts | 269° |